createdAt,value
2023-03-27T05:24:21.358Z,2.57
2023-03-27T05:25:21.308Z,2.57
2023-03-27T05:26:21.695Z,2.60
2023-03-27T05:27:21.272Z,2.60
2023-03-27T05:28:21.709Z,2.61
2023-03-27T05:29:22.430Z,2.66
2023-03-27T05:30:28.371Z,2.69
2023-03-27T05:31:21.804Z,2.67
2023-03-27T05:32:21.259Z,2.67
2023-03-27T05:33:22.557Z,2.74
2023-03-27T05:34:21.476Z,2.69
2023-03-27T05:35:21.188Z,2.74
2023-03-27T05:36:21.164Z,2.74
2023-03-27T05:37:21.223Z,2.74
2023-03-27T05:38:21.150Z,2.77
2023-03-27T05:39:21.169Z,2.78
2023-03-27T05:40:21.170Z,2.78
2023-03-27T05:41:21.109Z,2.77
2023-03-27T05:42:21.908Z,2.78
2023-03-27T05:43:21.124Z,2.77
2023-03-27T05:44:22.247Z,2.81
2023-03-27T05:45:21.222Z,2.81
2023-03-27T05:46:21.843Z,2.82
2023-03-27T05:47:21.021Z,2.85
2023-03-27T05:48:21.844Z,2.84
2023-03-27T05:49:21.089Z,2.89
2023-03-27T05:50:21.674Z,2.92
2023-03-27T05:51:21.164Z,2.95
2023-03-27T05:52:21.098Z,2.95
2023-03-27T05:53:28.846Z,2.95
2023-03-27T05:54:21.993Z,2.99
2023-03-27T05:55:21.723Z,2.99
2023-03-27T05:56:20.913Z,3.05
2023-03-27T05:57:20.917Z,3.08
2023-03-27T05:58:20.966Z,3.10
2023-03-27T05:59:20.924Z,3.13
2023-03-27T06:00:20.957Z,3.13
2023-03-27T06:01:20.859Z,3.17
2023-03-27T06:02:21.572Z,3.18
2023-03-27T06:03:21.164Z,3.17
2023-03-27T06:04:20.901Z,3.21
2023-03-27T06:05:20.817Z,3.21
2023-03-27T06:06:20.845Z,3.24
2023-03-27T06:07:21.047Z,3.26
2023-03-27T06:08:20.813Z,3.26
2023-03-27T06:09:21.106Z,3.26
2023-03-27T06:10:20.763Z,3.26
2023-03-27T06:11:20.900Z,3.31
2023-03-27T06:12:20.770Z,3.35
2023-03-27T06:13:20.718Z,3.42
2023-03-27T06:14:20.921Z,3.57
2023-03-27T06:15:20.776Z,3.65
2023-03-27T06:16:20.775Z,3.70
2023-03-27T06:17:21.292Z,3.78
2023-03-27T06:18:20.704Z,3.80
2023-03-27T06:19:20.785Z,3.80
2023-03-27T06:20:20.965Z,3.91
2023-03-27T06:21:20.985Z,3.91
2023-03-27T06:22:20.753Z,4.02
2023-03-27T06:23:20.644Z,4.27
2023-03-27T06:24:20.700Z,4.65
2023-03-27T06:25:20.646Z,4.88
2023-03-27T06:26:20.589Z,4.94
2023-03-27T06:27:20.766Z,5.28
2023-03-27T06:28:20.776Z,5.03
2023-03-27T06:29:21.830Z,4.84
2023-03-27T06:30:20.711Z,5.31
2023-03-27T06:31:20.596Z,5.49
2023-03-27T06:32:20.492Z,5.61
2023-03-27T06:33:20.486Z,5.93
2023-03-27T06:34:20.611Z,6.03
2023-03-27T06:35:20.410Z,5.79
2023-03-27T06:36:20.673Z,5.82
2023-03-27T06:37:21.505Z,5.81
2023-03-27T06:38:20.416Z,5.83
2023-03-27T06:39:21.041Z,5.93
2023-03-27T06:40:20.366Z,5.93
2023-03-27T06:41:20.450Z,5.79
2023-03-27T06:42:20.567Z,5.79
2023-03-27T06:43:20.338Z,5.89
2023-03-27T06:44:20.485Z,6.00
2023-03-27T06:45:20.376Z,5.93
2023-03-27T06:46:20.308Z,5.83
2023-03-27T06:47:20.344Z,5.71
2023-03-27T06:48:21.964Z,5.71
2023-03-27T06:49:20.443Z,5.68
2023-03-27T06:50:20.531Z,5.65
2023-03-27T06:51:20.212Z,5.75
2023-03-27T06:52:20.276Z,6.04
2023-03-27T06:54:20.176Z,6.31
2023-03-27T06:55:20.373Z,6.36
2023-03-27T06:56:20.547Z,6.38
2023-03-27T06:57:20.275Z,6.19
2023-03-27T06:58:20.104Z,6.09
2023-03-27T06:59:20.121Z,5.97
2023-03-27T07:00:20.279Z,6.06
2023-03-27T07:01:30.121Z,6.11
2023-03-27T07:02:20.052Z,6.11
2023-03-27T07:03:20.092Z,5.99
2023-03-27T07:04:20.008Z,5.93
2023-03-27T07:05:20.090Z,5.81
2023-03-27T07:06:20.042Z,5.71
2023-03-27T07:07:20.124Z,5.60
2023-03-27T07:08:24.331Z,5.46
2023-03-27T07:09:21.007Z,5.38
2023-03-27T07:10:19.970Z,5.33
2023-03-27T07:11:20.033Z,5.35
2023-03-27T07:12:19.929Z,5.71
2023-03-27T07:13:19.922Z,6.01
2023-03-27T07:14:19.953Z,6.46
2023-03-27T07:15:28.800Z,6.81
2023-03-27T07:16:20.229Z,7.23
2023-03-27T07:17:20.206Z,7.35
2023-03-27T07:18:20.194Z,6.98
2023-03-27T07:19:20.138Z,6.71
2023-03-27T07:20:20.018Z,6.58
2023-03-27T07:21:20.214Z,6.27
2023-03-27T07:22:19.943Z,6.06
2023-03-27T07:23:20.159Z,5.97
2023-03-27T07:24:19.875Z,5.78
2023-03-27T07:25:20.032Z,5.68
2023-03-27T07:26:20.122Z,5.58
2023-03-27T07:27:19.913Z,5.45
2023-03-27T07:28:20.029Z,5.28
2023-03-27T07:29:19.795Z,5.20
2023-03-27T07:30:21.372Z,5.18
2023-03-27T07:31:36.552Z,5.17
2023-03-27T07:32:33.856Z,5.15
2023-03-27T07:33:20.914Z,5.12
2023-03-27T07:34:20.416Z,5.10
2023-03-27T07:35:19.767Z,5.10
2023-03-27T07:36:19.785Z,5.17
2023-03-27T07:37:19.674Z,5.25
2023-03-27T07:38:19.716Z,5.31
2023-03-27T07:39:20.263Z,5.35
2023-03-27T07:40:21.775Z,5.33
2023-03-27T07:41:19.838Z,5.28
2023-03-27T07:42:19.693Z,5.22
2023-03-27T07:43:19.977Z,5.18
2023-03-27T07:44:20.306Z,5.21
2023-03-27T07:45:19.972Z,5.24
2023-03-27T07:46:19.950Z,5.24
2023-03-27T07:47:19.702Z,5.18
2023-03-27T07:48:19.917Z,5.15
2023-03-27T07:49:40.070Z,5.20
2023-03-27T07:50:20.901Z,5.20
2023-03-27T07:51:19.749Z,5.09
2023-03-27T07:52:20.013Z,5.07
2023-03-27T07:53:33.513Z,5.31
2023-03-27T07:54:20.932Z,5.67
2023-03-27T07:55:19.694Z,5.85
2023-03-27T07:56:19.745Z,5.83
2023-03-27T07:57:19.574Z,5.82
2023-03-27T07:58:19.667Z,5.93
2023-03-27T07:59:19.912Z,5.86
2023-03-27T08:00:19.715Z,5.83
2023-03-27T08:01:19.559Z,5.82
2023-03-27T08:02:19.602Z,5.83
2023-03-27T08:03:19.897Z,5.82
2023-03-27T08:04:19.943Z,5.99
2023-03-27T08:05:21.185Z,6.22
2023-03-27T08:06:19.682Z,6.54
2023-03-27T08:07:19.400Z,6.73
2023-03-27T08:08:20.233Z,6.74
2023-03-27T08:09:19.856Z,6.94
2023-03-27T08:10:19.780Z,7.23
2023-03-27T08:11:30.201Z,7.28
2023-03-27T08:12:20.703Z,7.46
2023-03-27T08:13:19.324Z,7.39
2023-03-27T08:14:19.258Z,7.16
2023-03-27T08:15:19.234Z,7.02
2023-03-27T08:16:19.310Z,6.98
2023-03-27T08:17:21.424Z,7.20
2023-03-27T08:18:19.456Z,7.49
2023-03-27T08:19:19.333Z,7.77
2023-03-27T08:20:19.138Z,8.05
2023-03-27T08:21:19.234Z,7.95
2023-03-27T08:22:19.193Z,8.05
2023-03-27T08:23:19.480Z,8.25
2023-03-27T08:24:19.327Z,8.22
2023-03-27T08:25:19.274Z,8.08
2023-03-27T08:26:19.149Z,7.86
2023-03-27T08:27:19.158Z,7.60
2023-03-27T08:28:19.086Z,7.45
2023-03-27T08:29:19.465Z,7.60
2023-03-27T08:30:19.049Z,7.46
2023-03-27T08:31:19.050Z,7.28
2023-03-27T08:32:19.087Z,6.95
2023-03-27T08:33:19.061Z,7.09
2023-03-27T08:34:19.200Z,7.10
2023-03-27T08:35:19.062Z,7.24
2023-03-27T08:36:19.055Z,7.30
2023-03-27T08:37:18.944Z,7.31
2023-03-27T08:38:26.106Z,7.42
2023-03-27T08:39:19.898Z,7.53
2023-03-27T08:40:18.923Z,7.61
2023-03-27T08:41:18.869Z,7.72
2023-03-27T08:42:19.396Z,7.64
2023-03-27T08:43:18.973Z,6.98
2023-03-27T08:44:18.993Z,7.35
2023-03-27T08:45:18.829Z,7.64
2023-03-27T08:46:18.935Z,7.45
2023-03-27T08:47:18.837Z,7.42
2023-03-27T08:48:20.441Z,7.34
2023-03-27T08:49:18.902Z,6.89
2023-03-27T08:50:19.692Z,6.64
2023-03-27T08:51:18.775Z,6.58
2023-03-27T08:52:19.061Z,6.58
2023-03-27T08:53:19.012Z,6.55
2023-03-27T08:54:18.781Z,6.59
2023-03-27T08:55:18.828Z,6.56
2023-03-27T08:56:19.138Z,6.52
2023-03-27T08:57:18.781Z,6.51
2023-03-27T08:58:18.741Z,6.55
2023-03-27T08:59:19.188Z,6.61
2023-03-27T09:00:18.747Z,6.58
2023-03-27T09:01:18.789Z,6.56
2023-03-27T09:02:18.905Z,6.48
2023-03-27T09:03:18.852Z,6.34
2023-03-27T09:04:18.587Z,6.36
2023-03-27T09:05:18.603Z,6.40
2023-03-27T09:06:18.613Z,6.46
2023-03-27T09:07:18.726Z,6.38
2023-03-27T09:08:18.555Z,6.80
2023-03-27T09:09:18.588Z,6.91
2023-03-27T09:10:18.602Z,6.70
2023-03-27T09:11:19.925Z,7.49
2023-03-27T09:12:18.521Z,8.23
2023-03-27T09:13:18.544Z,8.91
2023-03-27T09:14:18.426Z,8.91
2023-03-27T09:15:18.476Z,8.71
2023-03-27T09:16:18.455Z,8.34
2023-03-27T09:17:18.417Z,8.37
2023-03-27T09:18:18.425Z,8.71
2023-03-27T09:19:18.559Z,9.08
2023-03-27T09:20:18.435Z,8.96
2023-03-27T09:21:18.969Z,8.59
2023-03-27T09:22:18.420Z,8.02
2023-03-27T09:23:20.943Z,7.93
2023-03-27T09:24:18.493Z,7.67
2023-03-27T09:25:18.542Z,7.43
2023-03-27T09:26:18.536Z,7.61
2023-03-27T09:27:18.400Z,8.12
2023-03-27T09:28:18.435Z,8.11
2023-03-27T09:29:19.953Z,7.87
2023-03-27T09:30:18.353Z,7.63
2023-03-27T09:31:18.792Z,7.57
2023-03-27T09:32:18.557Z,7.89
2023-03-27T09:33:18.371Z,8.28
2023-03-27T09:34:19.660Z,8.28
2023-03-27T09:35:18.448Z,8.34
2023-03-27T09:36:18.253Z,8.48
2023-03-27T09:37:18.282Z,8.56
2023-03-27T09:38:18.187Z,8.65
2023-03-27T09:39:18.649Z,8.89
2023-03-27T09:40:18.234Z,9.40
2023-03-27T09:41:18.992Z,9.42
2023-03-27T09:42:18.216Z,9.20
2023-03-27T09:43:18.060Z,9.20
2023-03-27T09:44:18.163Z,8.86
2023-03-27T09:45:18.062Z,8.50
2023-03-27T09:46:18.183Z,8.34
2023-03-27T09:47:18.060Z,8.19
2023-03-27T09:48:18.190Z,8.19
2023-03-27T09:49:18.406Z,8.16
2023-03-27T09:50:18.024Z,7.92
2023-03-27T09:51:18.986Z,7.67
2023-03-27T09:52:19.018Z,7.50
2023-03-27T09:53:19.108Z,7.40
2023-03-27T09:54:17.974Z,7.30
2023-03-27T09:55:18.346Z,7.25
2023-03-27T09:56:17.961Z,7.25
2023-03-27T09:57:19.867Z,7.06
2023-03-27T09:58:38.809Z,6.88
2023-03-27T09:59:59.901Z,6.87
2023-03-27T10:00:59.170Z,6.97
2023-03-27T10:01:58.866Z,7.07
2023-03-27T10:02:58.932Z,7.42
2023-03-27T10:03:59.232Z,7.68
2023-03-27T10:04:58.877Z,7.93
2023-03-27T10:05:58.812Z,8.22
2023-03-27T10:06:58.752Z,8.59
2023-03-27T10:07:58.686Z,8.43
2023-03-27T10:08:58.717Z,8.15
2023-03-27T10:09:58.695Z,7.95
2023-03-27T10:10:58.872Z,7.82
2023-03-27T10:11:58.702Z,7.60
2023-03-27T10:12:58.666Z,7.53
2023-03-27T10:13:58.911Z,7.63
2023-03-27T10:14:58.623Z,7.82
2023-03-27T10:15:58.625Z,7.89
2023-03-27T10:16:58.662Z,7.90
2023-03-27T10:17:58.668Z,8.01
2023-03-27T10:18:58.687Z,8.23
2023-03-27T10:19:58.676Z,8.44
2023-03-27T10:20:58.916Z,8.56
2023-03-27T10:21:58.545Z,8.81
2023-03-27T10:22:58.532Z,8.81
2023-03-27T10:23:58.516Z,8.45
2023-03-27T10:24:58.471Z,8.48
2023-03-27T10:25:58.509Z,8.52
2023-03-27T10:26:58.468Z,8.71
2023-03-27T10:27:58.449Z,8.77
2023-03-27T10:28:58.459Z,8.94
2023-03-27T10:29:58.394Z,9.04
2023-03-27T10:30:58.631Z,9.13
2023-03-27T10:31:58.440Z,9.15
2023-03-27T10:32:58.436Z,9.05
2023-03-27T10:33:58.391Z,8.91
2023-03-27T10:34:58.402Z,8.53
2023-03-27T10:35:58.466Z,8.28
2023-03-27T10:36:58.356Z,8.18
2023-03-27T10:37:58.636Z,8.30
2023-03-27T10:38:58.318Z,8.48
2023-03-27T10:39:58.535Z,8.53
2023-03-27T10:40:58.544Z,8.40
2023-03-27T10:41:58.275Z,8.23
2023-03-27T10:42:58.328Z,8.08
2023-03-27T10:43:58.352Z,7.89
2023-03-27T10:44:58.198Z,7.90
2023-03-27T10:45:58.244Z,7.63
2023-03-27T10:46:58.234Z,8.02
2023-03-27T10:47:58.298Z,8.50
2023-03-27T10:48:58.304Z,8.71
2023-03-27T10:49:58.169Z,8.92
2023-03-27T10:50:58.384Z,8.95
2023-03-27T10:51:58.157Z,8.73
2023-03-27T10:52:58.326Z,8.19
2023-03-27T10:53:58.201Z,7.97
2023-03-27T10:54:58.093Z,7.97
2023-03-27T10:55:58.211Z,8.01
2023-03-27T10:56:58.290Z,8.02
2023-03-27T10:57:58.068Z,7.97
2023-03-27T10:58:58.032Z,7.89
2023-03-27T10:59:58.160Z,7.72
2023-03-27T11:00:58.185Z,7.60
2023-03-27T11:01:58.061Z,7.46
2023-03-27T11:02:58.099Z,7.13
2023-03-27T11:03:58.018Z,6.67
2023-03-27T11:04:58.032Z,6.06
2023-03-27T11:05:57.916Z,5.28
2023-03-27T11:06:57.951Z,4.70
2023-03-27T11:07:58.097Z,4.18
2023-03-27T11:08:57.860Z,3.75
2023-03-27T11:09:58.011Z,3.66
2023-03-27T11:10:58.109Z,3.58
2023-03-27T11:11:57.885Z,3.57
2023-03-27T11:12:57.858Z,3.55
2023-03-27T11:13:57.841Z,3.54
2023-03-27T11:14:57.815Z,3.51
2023-03-27T11:15:57.818Z,3.57
2023-03-27T11:16:57.898Z,3.60
2023-03-27T11:17:57.894Z,3.66
2023-03-27T11:18:57.800Z,3.78
2023-03-27T11:19:57.896Z,4.02
2023-03-27T11:20:57.887Z,4.50
2023-03-27T11:21:57.764Z,5.04
2023-03-27T11:22:57.764Z,5.48
2023-03-27T11:23:57.778Z,5.89
2023-03-27T11:24:57.806Z,6.11
2023-03-27T11:25:57.728Z,6.22
2023-03-27T11:26:57.658Z,6.03
2023-03-27T11:27:57.657Z,5.51
2023-03-27T11:28:57.693Z,5.57
2023-03-27T11:29:57.652Z,5.71
2023-03-27T11:30:57.888Z,5.82
2023-03-27T11:31:57.655Z,5.96
2023-03-27T11:32:57.596Z,6.08
2023-03-27T11:33:57.600Z,6.08
2023-03-27T11:34:57.554Z,6.22
2023-03-27T11:35:57.619Z,6.22
2023-03-27T11:36:57.552Z,6.28
2023-03-27T11:37:57.543Z,5.99
2023-03-27T11:38:57.487Z,6.04
2023-03-27T11:39:57.525Z,6.14
2023-03-27T11:40:57.706Z,6.27
2023-03-27T11:41:57.467Z,6.30
2023-03-27T11:42:57.569Z,6.55
2023-03-27T11:43:57.432Z,6.79
2023-03-27T11:44:57.443Z,7.07
2023-03-27T11:45:57.451Z,7.37
2023-03-27T11:46:57.425Z,7.46
2023-03-27T11:47:57.470Z,7.21
2023-03-27T11:48:57.385Z,7.06
2023-03-27T11:49:57.429Z,6.91
2023-03-27T11:50:57.582Z,6.80
2023-03-27T11:51:57.372Z,6.77
2023-03-27T11:52:57.353Z,6.70
2023-03-27T11:53:57.331Z,6.69
2023-03-27T11:54:57.341Z,6.46
2023-03-27T11:55:57.325Z,6.30
2023-03-27T11:56:57.334Z,6.28
2023-03-27T11:57:57.305Z,6.19
2023-03-27T11:58:57.258Z,6.15
2023-03-27T11:59:57.288Z,6.18
2023-03-27T12:00:57.546Z,6.12
2023-03-27T12:01:57.289Z,6.43
2023-03-27T12:02:57.354Z,6.79
2023-03-27T12:03:57.247Z,7.10
2023-03-27T12:04:57.234Z,7.32
2023-03-27T12:05:57.189Z,7.45
2023-03-27T12:07:04.002Z,7.50
2023-03-27T12:07:58.280Z,7.57
2023-03-27T12:08:57.148Z,7.58
2023-03-27T12:09:57.125Z,7.69
2023-03-27T12:10:57.254Z,7.86
2023-03-27T12:11:57.103Z,7.89
2023-03-27T12:12:57.112Z,8.12
2023-03-27T12:14:01.523Z,8.28
2023-03-27T12:14:57.081Z,8.36
2023-03-27T12:15:57.071Z,8.55
2023-03-27T12:16:57.092Z,8.65
2023-03-27T12:17:57.086Z,8.52
2023-03-27T12:19:03.809Z,8.53
2023-03-27T12:19:58.006Z,8.36
2023-03-27T12:20:56.994Z,8.30
2023-03-27T12:21:57.034Z,8.53
2023-03-27T12:22:57.079Z,8.81
2023-03-27T12:23:56.955Z,9.10
2023-03-27T12:24:59.730Z,9.05
2023-03-27T12:25:56.928Z,9.15
2023-03-27T12:26:56.917Z,8.96
2023-03-27T12:27:56.904Z,8.79
2023-03-27T12:28:56.899Z,8.73
2023-03-27T12:29:56.900Z,8.77
2023-03-27T12:30:57.069Z,8.91
2023-03-27T12:31:56.894Z,9.15
2023-03-27T12:32:58.931Z,9.35
2023-03-27T12:33:56.830Z,9.57
2023-03-27T12:34:56.831Z,9.84
2023-03-27T12:35:56.819Z,10.27
2023-03-27T12:36:56.830Z,10.26
2023-03-27T12:37:56.787Z,10.22
2023-03-27T12:38:56.749Z,10.44
2023-03-27T12:39:56.755Z,10.53
2023-03-27T12:40:57.116Z,10.40
2023-03-27T12:41:56.707Z,10.15
2023-03-27T12:42:56.759Z,10.20
2023-03-27T12:43:56.687Z,10.45
2023-03-27T12:44:59.497Z,10.68
2023-03-27T12:45:56.843Z,10.97
2023-03-27T12:46:56.678Z,10.97
2023-03-27T12:47:56.665Z,11.04
2023-03-27T12:48:56.638Z,11.35
2023-03-27T12:49:56.607Z,11.60
2023-03-27T12:50:57.024Z,11.28
2023-03-27T12:51:56.585Z,10.27
2023-03-27T12:52:56.607Z,9.51
2023-03-27T12:53:56.633Z,8.44
2023-03-27T12:54:56.560Z,7.74
2023-03-27T12:55:56.663Z,7.34
2023-03-27T12:56:56.566Z,6.81
2023-03-27T12:57:56.659Z,6.49
2023-03-27T12:58:56.760Z,6.17
2023-03-27T12:59:56.448Z,5.94
2023-03-27T13:00:56.745Z,5.81
2023-03-27T13:01:56.456Z,5.79
2023-03-27T13:02:56.545Z,5.83
2023-03-27T13:03:56.613Z,5.74
2023-03-27T13:04:56.578Z,5.63
2023-03-27T13:05:56.481Z,5.51
2023-03-27T13:06:56.425Z,5.30
2023-03-27T13:07:56.388Z,5.09
2023-03-27T13:08:56.454Z,5.02
2023-03-27T13:09:56.423Z,4.80
2023-03-27T13:10:56.539Z,4.75
2023-03-27T13:11:56.381Z,4.73
2023-03-27T13:12:56.309Z,4.69
2023-03-27T13:13:56.331Z,4.26
2023-03-27T13:14:56.281Z,4.08
2023-03-27T13:15:56.583Z,4.00
2023-03-27T13:17:03.808Z,3.97
2023-03-27T13:17:56.283Z,4.11
2023-03-27T13:18:56.200Z,4.14
2023-03-27T13:19:56.187Z,4.26
2023-03-27T13:20:56.187Z,4.27
2023-03-27T13:21:56.188Z,4.26
2023-03-27T13:22:56.170Z,4.24
2023-03-27T13:23:56.210Z,4.29
2023-03-27T13:24:56.125Z,4.32
2023-03-27T13:25:56.251Z,4.23
2023-03-27T13:26:56.151Z,4.24
2023-03-27T13:27:56.131Z,4.23
2023-03-27T13:28:56.281Z,4.16
2023-03-27T13:29:56.177Z,4.24
2023-03-27T13:30:56.146Z,4.33
2023-03-27T13:31:56.058Z,4.42
2023-03-27T13:32:56.099Z,4.45
2023-03-27T13:33:56.038Z,4.52
2023-03-27T13:34:56.086Z,4.59
2023-03-27T13:35:56.219Z,4.70
2023-03-27T13:37:06.107Z,4.72
2023-03-27T13:37:56.985Z,4.73
2023-03-27T13:38:56.000Z,4.78
2023-03-27T13:39:55.946Z,4.78
2023-03-27T13:40:55.933Z,4.82
2023-03-27T13:41:55.940Z,4.89
2023-03-27T13:42:55.953Z,4.97
2023-03-27T13:43:55.959Z,4.99
2023-03-27T13:44:55.870Z,5.03
2023-03-27T13:45:56.116Z,5.07
2023-03-27T13:46:55.979Z,5.10
2023-03-27T13:47:55.911Z,5.12
2023-03-27T13:48:55.951Z,5.20
2023-03-27T13:49:55.836Z,5.30
2023-03-27T13:50:55.808Z,5.40
2023-03-27T13:51:55.836Z,5.42
2023-03-27T13:52:55.783Z,5.49
2023-03-27T13:53:55.846Z,5.68
2023-03-27T13:54:55.828Z,5.82
2023-03-27T13:55:55.878Z,6.31
2023-03-27T13:56:55.746Z,7.35
2023-03-27T13:57:55.734Z,8.34
2023-03-27T13:58:55.760Z,8.83
2023-03-27T13:59:55.756Z,9.35
2023-03-27T14:00:55.699Z,9.89
2023-03-27T14:01:55.673Z,9.84
2023-03-27T14:02:55.765Z,10.05
2023-03-27T14:03:55.727Z,9.86
2023-03-27T14:04:55.651Z,10.05
2023-03-27T14:05:57.073Z,9.53
2023-03-27T14:06:55.619Z,8.61
2023-03-27T14:07:55.643Z,8.70
2023-03-27T14:08:55.569Z,9.05
2023-03-27T14:09:55.558Z,9.14
2023-03-27T14:10:55.556Z,9.58
2023-03-27T14:11:55.557Z,9.68
2023-03-27T14:12:55.571Z,9.90
2023-03-27T14:13:55.536Z,10.45
2023-03-27T14:14:55.493Z,10.91
2023-03-27T14:15:55.650Z,10.53
2023-03-27T14:16:55.505Z,10.79
2023-03-27T14:17:55.494Z,10.89
2023-03-27T14:18:55.438Z,10.79
2023-03-27T14:19:55.445Z,10.92
2023-03-27T14:20:55.433Z,10.89
2023-03-27T14:21:55.407Z,10.84
2023-03-27T14:22:55.434Z,10.84
2023-03-27T14:23:55.430Z,10.85
2023-03-27T14:24:55.339Z,10.68
2023-03-27T14:25:55.496Z,10.53
2023-03-27T14:26:55.367Z,10.53
2023-03-27T14:27:55.337Z,10.61
2023-03-27T14:28:55.431Z,10.81
2023-03-27T14:29:55.293Z,10.99
2023-03-27T14:30:55.256Z,11.17
2023-03-27T14:31:55.297Z,10.96
2023-03-27T14:32:55.340Z,10.18
2023-03-27T14:33:55.234Z,9.61
2023-03-27T14:34:55.215Z,9.15
2023-03-27T14:35:55.398Z,8.80
2023-03-27T14:36:55.206Z,8.47
2023-03-27T14:37:55.404Z,8.16
2023-03-27T14:38:55.180Z,7.72
2023-03-27T14:39:55.142Z,7.43
2023-03-27T14:40:55.148Z,7.24
2023-03-27T14:41:55.129Z,7.15
2023-03-27T14:42:55.133Z,6.97
2023-03-27T14:43:55.089Z,6.79
2023-03-27T14:44:55.131Z,6.51
2023-03-27T14:45:55.350Z,6.21
2023-03-27T14:46:55.089Z,6.08
2023-03-27T14:47:55.076Z,5.91
2023-03-27T14:48:56.258Z,5.91
2023-03-27T14:49:55.068Z,5.99
2023-03-27T14:50:55.126Z,6.22
2023-03-27T14:51:55.006Z,6.94
2023-03-27T14:52:55.423Z,7.49
2023-03-27T14:53:55.038Z,7.95
2023-03-27T14:54:55.666Z,8.29
2023-03-27T14:55:55.081Z,8.58
2023-03-27T14:56:55.135Z,9.08
2023-03-27T14:57:55.321Z,9.50
2023-03-27T14:58:54.969Z,9.58
2023-03-27T14:59:54.906Z,9.56
2023-03-27T15:00:54.848Z,9.48
2023-03-27T15:01:54.926Z,9.47
2023-03-27T15:02:55.018Z,9.54
2023-03-27T15:03:54.860Z,9.32
2023-03-27T15:04:54.824Z,9.39
2023-03-27T15:06:01.470Z,9.31
2023-03-27T15:06:54.746Z,9.46
2023-03-27T15:07:54.819Z,9.61
2023-03-27T15:08:54.777Z,9.48
2023-03-27T15:09:54.724Z,9.60
2023-03-27T15:10:54.782Z,9.40
2023-03-27T15:11:54.725Z,9.08
2023-03-27T15:12:54.714Z,9.28
2023-03-27T15:14:00.924Z,9.32
2023-03-27T15:14:54.639Z,9.42
2023-03-27T15:15:54.680Z,9.33
2023-03-27T15:16:54.716Z,9.56
2023-03-27T15:17:54.987Z,9.60
2023-03-27T15:18:54.643Z,9.60
2023-03-27T15:19:54.643Z,9.60
2023-03-27T15:20:56.505Z,9.87
2023-03-27T15:21:54.558Z,9.91
2023-03-27T15:22:54.575Z,9.72
2023-03-27T15:23:54.590Z,9.56
2023-03-27T15:24:59.891Z,9.53
2023-03-27T15:25:54.781Z,9.50
2023-03-27T15:26:54.495Z,9.64
2023-03-27T15:27:54.478Z,9.38
2023-03-27T15:28:54.521Z,9.40
2023-03-27T15:29:54.615Z,9.65
2023-03-27T15:30:54.493Z,9.87
2023-03-27T15:31:54.515Z,10.02
2023-03-27T15:33:00.484Z,10.18
2023-03-27T15:33:54.988Z,9.75
2023-03-27T15:34:56.149Z,9.71
2023-03-27T15:35:58.524Z,9.71
2023-03-27T15:36:55.601Z,9.32
2023-03-27T15:37:55.559Z,9.42
2023-03-27T15:39:05.049Z,9.66
2023-03-27T15:39:54.429Z,9.68
2023-03-27T15:41:00.853Z,9.69
2023-03-27T15:41:54.532Z,9.43
2023-03-27T15:43:04.367Z,9.48
2023-03-27T15:43:54.317Z,9.32
2023-03-27T15:44:54.474Z,9.47
2023-03-27T15:45:54.315Z,9.69
2023-03-27T15:46:54.417Z,9.94
2023-03-27T15:47:54.325Z,9.96
2023-03-27T15:48:54.227Z,9.90
2023-03-27T15:49:54.366Z,10.01
2023-03-27T15:50:54.157Z,10.02
2023-03-27T15:51:54.180Z,10.12
2023-03-27T15:52:54.240Z,9.89
2023-03-27T15:53:54.269Z,9.68
2023-03-27T15:54:54.153Z,9.60
2023-03-27T15:55:54.146Z,9.42
2023-03-27T15:57:10.185Z,9.46
2023-03-27T15:57:55.127Z,9.56
2023-03-27T15:58:54.095Z,9.61
2023-03-27T15:59:54.126Z,9.50
2023-03-27T16:00:54.156Z,9.35
2023-03-27T16:01:54.140Z,9.02
2023-03-27T16:02:54.163Z,8.81
2023-03-27T16:03:56.100Z,8.53
2023-03-27T16:04:54.407Z,8.29
2023-03-27T16:05:54.026Z,8.15
2023-03-27T16:06:54.442Z,7.82
2023-03-27T16:08:03.659Z,7.37
2023-03-27T16:08:53.927Z,7.30
2023-03-27T16:09:54.744Z,7.25
2023-03-27T16:10:53.931Z,7.16
2023-03-27T16:11:54.781Z,7.05
2023-03-27T16:12:56.108Z,6.91
2023-03-27T16:13:55.548Z,6.77
2023-03-27T16:15:00.557Z,6.61
2023-03-27T16:16:08.898Z,6.54
2023-03-27T16:16:53.808Z,6.52
2023-03-27T16:17:53.931Z,6.55
2023-03-27T16:18:55.054Z,6.55
2023-03-27T16:19:54.472Z,6.59
2023-03-27T16:20:53.779Z,6.62
2023-03-27T16:21:53.740Z,6.66
2023-03-27T16:22:56.159Z,6.73
2023-03-27T16:25:05.977Z,-39.95
2023-03-27T16:26:05.918Z,-39.95
2023-03-27T16:27:05.919Z,-39.95
2023-03-27T16:28:05.881Z,-39.95
2023-03-27T16:29:05.854Z,-39.95
2023-03-27T16:30:05.886Z,-39.95
2023-03-27T16:31:05.845Z,-39.95
2023-03-27T16:32:05.915Z,-39.95
2023-03-27T16:33:05.831Z,-39.95
2023-03-27T16:34:05.919Z,-39.95
2023-03-27T16:35:05.761Z,-39.95
2023-03-27T16:36:05.871Z,-39.95
2023-03-27T16:37:05.793Z,-39.95
2023-03-27T16:38:05.743Z,-39.95
2023-03-27T16:39:05.874Z,-39.95
2023-03-27T16:40:05.961Z,-39.95
2023-03-27T16:41:05.744Z,-39.95
2023-03-27T16:42:05.695Z,-39.95
2023-03-27T16:43:05.732Z,-39.95
2023-03-27T16:44:05.708Z,-39.95
2023-03-27T16:45:05.694Z,-39.95
2023-03-27T16:46:05.764Z,-39.95
2023-03-27T16:47:05.631Z,-39.95
2023-03-27T16:48:05.827Z,-39.95
2023-03-27T16:49:14.351Z,-39.95
2023-03-27T16:50:11.559Z,-39.95
2023-03-27T16:51:07.813Z,-39.95
2023-03-27T16:52:07.253Z,-39.95
2023-03-27T16:53:05.658Z,-39.95
2023-03-27T16:54:05.737Z,-39.95
2023-03-27T16:55:07.450Z,-39.95
2023-03-27T16:56:05.514Z,-39.95
2023-03-27T16:57:05.548Z,-39.95
2023-03-27T16:58:05.602Z,-39.95
2023-03-27T16:59:05.469Z,-39.95
2023-03-27T17:00:14.009Z,-39.95
2023-03-27T17:01:05.733Z,-39.95
2023-03-27T17:02:05.430Z,-39.95
2023-03-27T17:03:38.978Z,6.33
2023-03-27T17:04:39.075Z,6.34
2023-03-27T17:05:38.966Z,6.28
2023-03-27T17:06:39.195Z,6.30
2023-03-27T17:07:38.988Z,6.25
2023-03-27T17:08:56.061Z,6.19
2023-03-27T17:09:39.052Z,6.21
2023-03-27T17:10:38.886Z,6.14
2023-03-27T17:11:49.794Z,6.12
2023-03-27T17:12:38.882Z,6.11
2023-03-27T17:13:40.865Z,6.03
2023-03-27T17:14:38.891Z,5.97
2023-03-27T17:15:38.893Z,5.99
2023-03-27T17:16:38.917Z,5.91
2023-03-27T17:17:39.059Z,5.93
2023-03-27T17:18:38.833Z,5.85
2023-03-27T17:19:38.816Z,5.78
2023-03-27T17:20:46.429Z,5.75
2023-03-27T17:21:38.745Z,5.78
2023-03-27T17:22:38.866Z,5.78
2023-03-27T17:23:38.926Z,5.71
2023-03-27T17:24:53.210Z,5.68
2023-03-27T17:25:39.729Z,5.68
2023-03-27T17:26:38.723Z,5.65
2023-03-27T17:27:38.734Z,5.71
2023-03-27T17:28:38.747Z,5.68
2023-03-27T17:29:38.857Z,5.71
2023-03-27T17:30:44.650Z,5.67
2023-03-27T17:31:39.695Z,5.64
2023-03-27T17:32:38.705Z,5.67
2023-03-27T17:33:38.636Z,5.64
2023-03-27T17:34:38.657Z,5.61
2023-03-27T17:35:39.281Z,5.57
2023-03-27T17:36:44.859Z,5.51
2023-03-27T17:37:39.618Z,5.49
2023-03-27T17:38:39.653Z,5.54
2023-03-27T17:39:38.561Z,5.51
2023-03-27T17:40:38.581Z,5.46
2023-03-27T17:41:38.930Z,5.40
2023-03-27T17:42:40.144Z,5.38
2023-03-27T17:43:39.827Z,5.33
2023-03-27T17:44:48.563Z,5.36
2023-03-27T17:45:38.557Z,5.33
2023-03-27T17:46:38.574Z,5.35
2023-03-27T17:47:38.565Z,5.28
2023-03-27T17:48:38.449Z,5.25
2023-03-27T17:49:38.464Z,5.28
2023-03-27T17:50:38.429Z,5.24
2023-03-27T17:51:38.388Z,5.21
2023-03-27T17:52:38.514Z,5.20
2023-03-27T17:53:38.504Z,5.18
2023-03-27T17:54:38.458Z,5.18
2023-03-27T17:55:38.519Z,5.13
2023-03-27T17:56:38.554Z,5.15
2023-03-27T17:57:38.463Z,5.13
2023-03-27T17:58:38.341Z,5.12
2023-03-27T17:59:38.563Z,5.07
2023-03-27T18:00:38.440Z,5.06
2023-03-27T18:01:38.508Z,5.02
2023-03-27T18:02:38.427Z,4.99
2023-03-27T18:03:38.433Z,4.92
2023-03-27T18:04:38.436Z,4.91
2023-03-27T18:05:38.404Z,4.91
2023-03-27T18:06:38.320Z,4.92
2023-03-27T18:07:38.218Z,4.91
2023-03-27T18:08:38.274Z,4.92
2023-03-27T18:09:38.365Z,4.91
2023-03-27T18:10:38.340Z,4.89
2023-03-27T18:11:46.841Z,4.88
2023-03-27T18:12:38.136Z,4.88
2023-03-27T18:13:38.094Z,4.91
2023-03-27T18:14:38.221Z,4.89
2023-03-27T18:15:38.269Z,4.85
2023-03-27T18:16:38.131Z,4.88
2023-03-27T18:17:38.144Z,4.86
2023-03-27T18:18:38.050Z,4.88
2023-03-27T18:19:38.041Z,4.86
2023-03-27T18:20:38.048Z,4.85
2023-03-27T18:21:38.053Z,4.85
2023-03-27T18:22:38.055Z,4.78
2023-03-27T18:23:37.989Z,4.78
2023-03-27T18:24:39.011Z,4.77
2023-03-27T18:25:37.971Z,4.72
2023-03-27T18:26:38.168Z,4.73
2023-03-27T18:27:37.959Z,4.77
2023-03-27T18:28:37.954Z,4.78
2023-03-27T18:29:37.918Z,4.78
2023-03-27T18:30:37.916Z,4.77
2023-03-27T18:31:38.034Z,4.73
2023-03-27T18:32:38.039Z,4.78
2023-03-27T18:33:39.663Z,4.78
2023-03-27T18:34:37.844Z,4.82
2023-03-27T18:35:37.899Z,4.78
2023-03-27T18:36:37.986Z,4.75
2023-03-27T18:37:37.780Z,4.75
2023-03-27T18:38:37.781Z,4.77
2023-03-27T18:39:37.874Z,4.77
2023-03-27T18:40:37.810Z,4.70
2023-03-27T18:41:37.877Z,4.73